createdAt,value
2016-03-21T00:00:18.848Z,0
2016-03-21T00:01:18.850Z,0
2016-03-21T00:02:18.869Z,0
2016-03-21T00:03:18.856Z,0
2016-03-21T00:04:18.875Z,0
2016-03-21T00:05:18.892Z,0
2016-03-21T00:06:18.894Z,0
2016-03-21T00:07:18.930Z,0
2016-03-21T00:08:18.932Z,0
2016-03-21T00:09:19.153Z,0
2016-03-21T00:10:18.953Z,0
2016-03-21T00:11:18.971Z,0
2016-03-21T00:12:18.958Z,0
2016-03-21T00:13:18.993Z,0
2016-03-21T00:14:18.995Z,0
2016-03-21T00:15:18.998Z,0
2016-03-21T00:16:19.032Z,0
2016-03-21T00:17:19.018Z,0
2016-03-21T00:18:19.037Z,0
2016-03-21T00:19:19.055Z,0
2016-03-21T00:20:19.058Z,0
2016-03-21T00:21:20.983Z,0
2016-03-21T00:22:19.079Z,0
2016-03-21T00:23:19.113Z,0
2016-03-21T00:24:19.115Z,0
2016-03-21T00:25:19.134Z,0
2016-03-21T00:26:19.120Z,0
2016-03-21T00:27:19.140Z,0
2016-03-21T00:28:19.158Z,0
2016-03-21T00:29:19.176Z,0
2016-03-21T00:30:19.194Z,0
2016-03-21T00:31:19.197Z,0
2016-03-21T00:32:19.200Z,0
2016-03-21T00:33:19.218Z,0
2016-03-21T00:34:19.220Z,0
2016-03-21T00:35:19.208Z,0
2016-03-21T00:36:19.272Z,0
2016-03-21T00:37:19.260Z,0
2016-03-21T00:38:19.278Z,0
2016-03-21T00:39:19.609Z,0
2016-03-21T00:40:19.284Z,0
2016-03-21T00:41:19.286Z,0
2016-03-21T00:42:19.305Z,0
2016-03-21T00:43:19.291Z,0
2016-03-21T00:44:19.326Z,0
2016-03-21T00:45:19.360Z,0
2016-03-21T00:46:19.362Z,0
2016-03-21T00:47:19.365Z,0
2016-03-21T00:48:19.368Z,0
2016-03-21T00:49:19.402Z,0
2016-03-21T00:50:19.404Z,0
2016-03-21T00:51:19.251Z,0
2016-03-21T00:52:19.425Z,0
2016-03-21T00:53:19.428Z,0
2016-03-21T00:54:19.431Z,0
2016-03-21T00:55:19.434Z,0
2016-03-21T00:56:19.484Z,0
2016-03-21T00:57:19.470Z,0
2016-03-21T00:58:19.332Z,0
2016-03-21T00:59:19.507Z,0
2016-03-21T01:00:19.509Z,0
2016-03-21T01:01:19.528Z,0
2016-03-21T01:02:19.514Z,0
2016-03-21T01:03:19.548Z,0
2016-03-21T01:04:19.551Z,0
2016-03-21T01:05:19.586Z,0
2016-03-21T01:06:19.603Z,0
2016-03-21T01:07:19.419Z,0
2016-03-21T01:08:19.594Z,0
2016-03-21T01:09:19.596Z,0
2016-03-21T01:10:19.614Z,0
2016-03-21T01:11:19.633Z,0
2016-03-21T01:12:19.666Z,0
2016-03-21T01:13:19.669Z,0
2016-03-21T01:14:21.969Z,0
2016-03-21T01:15:19.690Z,0
2016-03-21T01:16:19.708Z,0
2016-03-21T01:17:19.680Z,0
2016-03-21T01:18:19.746Z,0
2016-03-21T01:19:19.732Z,0
2016-03-21T01:20:19.657Z,0
2016-03-21T01:21:19.722Z,0
2016-03-21T01:22:19.772Z,0
2016-03-21T01:23:19.743Z,0
2016-03-21T01:24:19.792Z,0
2016-03-21T01:25:19.796Z,0
2016-03-21T01:26:19.798Z,0
2016-03-21T01:27:19.817Z,0
2016-03-21T01:28:19.820Z,0
2016-03-21T01:29:19.837Z,0
2016-03-21T01:30:19.840Z,0
2016-03-21T01:31:19.874Z,0
2016-03-21T01:32:19.862Z,0
2016-03-21T01:33:19.879Z,0
2016-03-21T01:34:19.882Z,0
2016-03-21T01:35:19.776Z,0
2016-03-21T01:36:19.919Z,0
2016-03-21T01:37:19.937Z,0
2016-03-21T01:38:19.940Z,0
2016-03-21T01:39:19.958Z,0
2016-03-21T01:40:19.961Z,0
2016-03-21T01:41:19.980Z,0
2016-03-21T01:42:19.982Z,0
2016-03-21T01:43:20.000Z,0
2016-03-21T01:44:19.988Z,0
2016-03-21T01:45:20.005Z,0
2016-03-21T01:46:20.024Z,0
2016-03-21T01:47:20.027Z,0
2016-03-21T01:48:20.076Z,0
2016-03-21T01:49:20.063Z,0
2016-03-21T01:50:20.066Z,0
2016-03-21T01:51:20.069Z,0
2016-03-21T01:52:20.088Z,0
2016-03-21T01:53:20.106Z,0
2016-03-21T01:54:20.093Z,0
2016-03-21T01:55:20.143Z,0
2016-03-21T01:56:20.130Z,0
2016-03-21T01:57:20.132Z,0
2016-03-21T01:58:20.182Z,0
2016-03-21T01:59:20.185Z,0
2016-03-21T02:00:20.187Z,0
2016-03-21T02:01:20.189Z,0
2016-03-21T02:02:20.208Z,0
2016-03-21T02:03:20.226Z,0
2016-03-21T02:04:20.198Z,0
2016-03-21T02:05:20.247Z,0
2016-03-21T02:06:20.234Z,0
2016-03-21T02:07:20.253Z,0
2016-03-21T02:08:20.255Z,0
2016-03-21T02:09:20.290Z,0
2016-03-21T02:10:20.292Z,0
2016-03-21T02:11:20.325Z,0
2016-03-21T02:12:20.313Z,0
2016-03-21T02:13:20.316Z,0
2016-03-21T02:14:20.319Z,0
2016-03-21T02:15:20.337Z,0
2016-03-21T02:16:20.340Z,0
2016-03-21T02:17:20.358Z,0
2016-03-21T02:18:20.360Z,0
2016-03-21T02:19:20.364Z,0
2016-03-21T02:20:20.397Z,0
2016-03-21T02:21:20.400Z,0
2016-03-21T02:22:20.418Z,0
2016-03-21T02:23:20.421Z,0
2016-03-21T02:24:20.424Z,0
2016-03-21T02:25:20.441Z,0
2016-03-21T02:26:20.460Z,0
2016-03-21T02:27:20.479Z,0
2016-03-21T02:28:20.481Z,0
2016-03-21T02:29:20.499Z,0
2016-03-21T02:30:20.501Z,0
2016-03-21T02:31:20.521Z,0
2016-03-21T02:32:20.523Z,0
2016-03-21T02:33:20.540Z,0
2016-03-21T02:34:20.559Z,0
2016-03-21T02:35:20.546Z,0
2016-03-21T02:36:20.565Z,0
2016-03-21T02:37:20.599Z,0
2016-03-21T02:38:20.587Z,0
2016-03-21T02:39:20.589Z,0
2016-03-21T02:40:20.450Z,0
2016-03-21T02:41:20.610Z,0
2016-03-21T02:42:20.612Z,0
2016-03-21T02:43:20.647Z,0
2016-03-21T02:44:20.680Z,0
2016-03-21T02:45:20.667Z,0
2016-03-21T02:46:20.670Z,0
2016-03-21T02:47:20.688Z,0
2016-03-21T02:48:20.692Z,0
2016-03-21T02:49:20.694Z,0
2016-03-21T02:50:20.712Z,0
2016-03-21T02:51:20.746Z,0
2016-03-21T02:52:20.733Z,0
2016-03-21T02:53:20.752Z,0
2016-03-21T02:54:20.754Z,0
2016-03-21T02:55:20.772Z,0
2016-03-21T02:56:20.759Z,0
2016-03-21T02:57:20.794Z,0
2016-03-21T02:58:20.812Z,0
2016-03-21T02:59:20.815Z,0
2016-03-21T03:00:20.802Z,0
2016-03-21T03:01:20.820Z,0
2016-03-21T03:02:20.854Z,0
2016-03-21T03:03:20.841Z,0
2016-03-21T03:04:20.844Z,0
2016-03-21T03:05:20.893Z,0
2016-03-21T03:06:20.895Z,0
2016-03-21T03:07:20.882Z,0
2016-03-21T03:08:20.931Z,0
2016-03-21T03:09:20.933Z,0
2016-03-21T03:10:20.937Z,0
2016-03-21T03:11:20.955Z,0
2016-03-21T03:12:20.942Z,0
2016-03-21T03:13:20.960Z,0
2016-03-21T03:14:20.979Z,0
2016-03-21T03:15:20.982Z,0
2016-03-21T03:16:20.985Z,0
2016-03-21T03:17:21.002Z,0
2016-03-21T03:18:21.004Z,0
2016-03-21T03:19:21.008Z,0
2016-03-21T03:20:21.010Z,0
2016-03-21T03:21:21.029Z,0
2016-03-21T03:22:21.047Z,0
2016-03-21T03:23:21.049Z,0
2016-03-21T03:24:21.068Z,0
2016-03-21T03:25:21.070Z,0
2016-03-21T03:26:21.090Z,0
2016-03-21T03:27:21.139Z,0
2016-03-21T03:28:21.125Z,0
2016-03-21T03:29:21.128Z,0
2016-03-21T03:30:21.147Z,0
2016-03-21T03:31:21.150Z,0
2016-03-21T03:32:21.184Z,0
2016-03-21T03:33:21.171Z,0
2016-03-21T03:34:21.189Z,0
2016-03-21T03:35:21.223Z,0
2016-03-21T03:36:21.225Z,0
2016-03-21T03:37:21.228Z,0
2016-03-21T03:38:21.262Z,0
2016-03-21T03:39:21.233Z,0
2016-03-21T03:40:21.283Z,0
2016-03-21T03:41:21.254Z,0
2016-03-21T03:42:21.289Z,0
2016-03-21T03:43:21.291Z,0
2016-03-21T03:44:21.310Z,0
2016-03-21T03:45:21.313Z,0
2016-03-21T03:46:21.330Z,0
2016-03-21T03:47:21.349Z,0
2016-03-21T03:48:21.367Z,0
2016-03-21T03:49:21.355Z,0
2016-03-21T03:50:21.419Z,0
2016-03-21T03:51:21.359Z,0
2016-03-21T03:52:21.377Z,0
2016-03-21T03:53:21.396Z,0
2016-03-21T03:54:21.414Z,0
2016-03-21T03:55:21.402Z,0
2016-03-21T03:56:21.420Z,0
2016-03-21T03:57:21.438Z,0
2016-03-21T03:58:21.456Z,0
2016-03-21T03:59:21.443Z,0
2016-03-21T04:00:21.478Z,0
2016-03-21T04:01:21.495Z,0
2016-03-21T04:02:21.514Z,0
2016-03-21T04:03:21.517Z,0
2016-03-21T04:04:21.520Z,0
2016-03-21T04:05:21.569Z,0
2016-03-21T04:06:21.509Z,0
2016-03-21T04:07:21.543Z,0
2016-03-21T04:08:21.561Z,0
2016-03-21T04:09:21.548Z,0
2016-03-21T04:10:21.566Z,0
2016-03-21T04:11:21.586Z,0
2016-03-21T04:12:21.588Z,0
2016-03-21T04:13:21.606Z,0
2016-03-21T04:14:21.608Z,0
2016-03-21T04:15:21.643Z,0
2016-03-21T04:16:21.630Z,0
2016-03-21T04:17:21.648Z,0
2016-03-21T04:18:21.667Z,0
2016-03-21T04:19:21.669Z,0
2016-03-21T04:20:21.718Z,0
2016-03-21T04:21:21.690Z,0
2016-03-21T04:22:21.724Z,0
2016-03-21T04:23:21.711Z,0
2016-03-21T04:24:21.745Z,0
2016-03-21T04:25:21.732Z,0
2016-03-21T04:26:21.766Z,0
2016-03-21T04:27:21.753Z,0
2016-03-21T04:28:21.756Z,0
2016-03-21T04:29:21.806Z,0
2016-03-21T04:30:21.792Z,0
2016-03-21T04:31:21.811Z,0
2016-03-21T04:32:21.813Z,0
2016-03-21T04:33:21.817Z,0
2016-03-21T04:34:21.819Z,0
2016-03-21T04:35:21.853Z,0
2016-03-21T04:36:21.870Z,0
2016-03-21T04:37:21.889Z,0
2016-03-21T04:38:21.892Z,0
2016-03-21T04:39:21.894Z,0
2016-03-21T04:40:21.882Z,0
2016-03-21T04:41:21.884Z,0
2016-03-21T04:42:21.934Z,0
2016-03-21T04:43:21.905Z,0
2016-03-21T04:44:21.955Z,0
2016-03-21T04:45:22.020Z,0
2016-03-21T04:46:21.960Z,0
2016-03-21T04:47:21.994Z,0
2016-03-21T04:48:21.982Z,0
2016-03-21T04:49:22.000Z,0
2016-03-21T04:50:22.049Z,0
2016-03-21T04:51:22.036Z,0
2016-03-21T04:52:22.024Z,0
2016-03-21T04:53:22.041Z,4
2016-03-21T04:54:22.060Z,4
2016-03-21T04:55:22.046Z,0
2016-03-21T04:56:22.081Z,0
2016-03-21T04:57:22.099Z,4
2016-03-21T04:58:22.101Z,4
2016-03-21T04:59:22.104Z,4
2016-03-21T05:00:22.107Z,4
2016-03-21T05:01:22.110Z,4
2016-03-21T05:02:22.112Z,8
2016-03-21T05:03:22.148Z,4
2016-03-21T05:04:22.165Z,8
2016-03-21T05:05:22.214Z,8
2016-03-21T05:06:22.171Z,8
2016-03-21T05:07:22.189Z,8
2016-03-21T05:08:22.192Z,8
2016-03-21T05:09:22.209Z,12
2016-03-21T05:10:22.212Z,12
2016-03-21T05:11:22.231Z,12
2016-03-21T05:12:22.234Z,12
2016-03-21T05:13:22.252Z,16
2016-03-21T05:14:22.255Z,16
2016-03-21T05:15:22.272Z,16
2016-03-21T05:16:22.291Z,20
2016-03-21T05:17:22.277Z,20
2016-03-21T05:18:22.313Z,24
2016-03-21T05:19:22.315Z,20
2016-03-21T05:20:22.395Z,20
2016-03-21T05:21:22.335Z,24
2016-03-21T05:22:22.354Z,24
2016-03-21T05:23:22.341Z,28
2016-03-21T05:24:22.374Z,32
2016-03-21T05:25:22.378Z,36
2016-03-21T05:26:22.380Z,40
2016-03-21T05:27:22.398Z,48
2016-03-21T05:28:22.417Z,48
2016-03-21T05:29:22.404Z,56
2016-03-21T05:30:22.423Z,64
2016-03-21T05:31:22.440Z,68
2016-03-21T05:32:22.443Z,72
2016-03-21T05:33:22.462Z,76
2016-03-21T05:34:22.496Z,76
2016-03-21T05:35:22.514Z,80
2016-03-21T05:36:22.501Z,84
2016-03-21T05:37:22.489Z,92
2016-03-21T05:38:22.522Z,96
2016-03-21T05:39:22.540Z,100
2016-03-21T05:40:22.528Z,100
2016-03-21T05:41:22.592Z,104
2016-03-21T05:42:22.548Z,112
2016-03-21T05:43:22.582Z,120
2016-03-21T05:44:22.586Z,136
2016-03-21T05:45:22.588Z,148
2016-03-21T05:46:22.606Z,168
2016-03-21T05:47:22.624Z,180
2016-03-21T05:48:22.644Z,200
2016-03-21T05:49:22.630Z,212
2016-03-21T05:50:22.585Z,248
2016-03-21T05:51:22.652Z,284
2016-03-21T05:52:22.669Z,344
2016-03-21T05:53:22.688Z,400
2016-03-21T05:54:22.705Z,452
2016-03-21T05:55:22.708Z,488
2016-03-21T05:56:22.696Z,500
2016-03-21T05:57:22.713Z,492
2016-03-21T05:58:22.732Z,460
2016-03-21T05:59:22.735Z,432
2016-03-21T06:00:22.753Z,436
2016-03-21T06:01:22.756Z,456
2016-03-21T06:02:22.773Z,468
2016-03-21T06:03:22.793Z,480
2016-03-21T06:04:22.795Z,476
2016-03-21T06:05:22.814Z,496
2016-03-21T06:06:22.816Z,532
2016-03-21T06:07:22.819Z,560
2016-03-21T06:08:22.822Z,552
2016-03-21T06:09:22.839Z,576
2016-03-21T06:10:22.859Z,560
2016-03-21T06:11:22.861Z,512
2016-03-21T06:12:22.879Z,488
2016-03-21T06:13:22.881Z,488
2016-03-21T06:14:22.900Z,468
2016-03-21T06:15:22.919Z,440
2016-03-21T06:16:22.936Z,424
2016-03-21T06:17:22.924Z,420
2016-03-21T06:18:22.942Z,420
2016-03-21T06:19:22.960Z,420
2016-03-21T06:20:22.963Z,412
2016-03-21T06:21:22.966Z,408
2016-03-21T06:22:22.985Z,408
2016-03-21T06:23:23.002Z,408
2016-03-21T06:24:22.849Z,408
2016-03-21T06:25:23.008Z,412
2016-03-21T06:26:23.011Z,412
2016-03-21T06:27:23.060Z,412
2016-03-21T06:28:23.046Z,420
2016-03-21T06:29:23.050Z,416
2016-03-21T06:30:23.068Z,412
2016-03-21T06:31:23.071Z,408
2016-03-21T06:32:23.090Z,412
2016-03-21T06:33:23.107Z,416
2016-03-21T06:34:23.110Z,428
2016-03-21T06:35:23.112Z,440
2016-03-21T06:36:23.147Z,456
2016-03-21T06:37:23.181Z,460
2016-03-21T06:38:23.184Z,456
2016-03-21T06:39:23.170Z,456
2016-03-21T06:40:23.173Z,460
2016-03-21T06:41:23.192Z,468
2016-03-21T06:42:23.209Z,496
2016-03-21T06:43:23.228Z,520
2016-03-21T06:44:23.247Z,528
2016-03-21T06:45:23.249Z,520
2016-03-21T06:46:23.252Z,512
2016-03-21T06:47:22.520Z,504
2016-03-21T06:48:23.273Z,504
2016-03-21T06:49:23.291Z,516
2016-03-21T06:50:23.278Z,540
2016-03-21T06:51:23.313Z,560
2016-03-21T06:52:23.316Z,580
2016-03-21T06:53:23.318Z,584
2016-03-21T06:54:23.321Z,596
2016-03-21T06:55:23.339Z,596
2016-03-21T06:56:23.357Z,608
2016-03-21T06:57:23.374Z,620
2016-03-21T06:58:23.378Z,632
2016-03-21T06:59:23.380Z,636
2016-03-21T07:00:23.383Z,644
2016-03-21T07:01:23.417Z,644
2016-03-21T07:02:23.420Z,632
2016-03-21T07:03:23.579Z,616
2016-03-21T07:04:23.440Z,608
2016-03-21T07:05:23.476Z,604
2016-03-21T07:06:23.462Z,608
2016-03-21T07:07:23.472Z,620
2016-03-21T07:08:23.506Z,640
2016-03-21T07:09:23.509Z,656
2016-03-21T07:10:23.512Z,668
2016-03-21T07:11:23.530Z,672
2016-03-21T07:12:23.392Z,676
2016-03-21T07:13:23.598Z,688
2016-03-21T07:14:23.553Z,708
2016-03-21T07:15:23.572Z,728
2016-03-21T07:16:23.418Z,744
2016-03-21T07:17:23.593Z,756
2016-03-21T07:18:23.611Z,772
2016-03-21T07:19:23.614Z,792
2016-03-21T07:20:23.664Z,796
2016-03-21T07:21:23.635Z,808
2016-03-21T07:22:23.638Z,820
2016-03-21T07:23:23.655Z,840
2016-03-21T07:24:23.659Z,860
2016-03-21T07:25:23.693Z,876
2016-03-21T07:26:23.710Z,880
2016-03-21T07:27:23.713Z,868
2016-03-21T07:28:23.732Z,860
2016-03-21T07:29:23.735Z,860
2016-03-21T07:30:23.737Z,872
2016-03-21T07:31:23.772Z,904
2016-03-21T07:32:23.790Z,916
2016-03-21T07:33:23.807Z,908
2016-03-21T07:34:23.795Z,888
2016-03-21T07:35:23.829Z,864
2016-03-21T07:36:23.815Z,852
2016-03-21T07:37:23.834Z,856
2016-03-21T07:38:23.837Z,872
2016-03-21T07:39:23.840Z,888
2016-03-21T07:40:23.889Z,904
2016-03-21T07:41:23.892Z,916
2016-03-21T07:42:23.895Z,920
2016-03-21T07:43:23.897Z,928
2016-03-21T07:44:23.915Z,936
2016-03-21T07:45:23.910Z,944
2016-03-21T07:46:23.931Z,956
2016-03-21T07:47:23.903Z,968
2016-03-21T07:48:23.893Z,972
2016-03-21T07:49:23.912Z,980
2016-03-21T07:50:23.907Z,992
2016-03-21T07:51:23.920Z,1012
2016-03-21T07:52:23.917Z,1020
2016-03-21T07:53:23.932Z,1020
2016-03-21T07:54:23.944Z,1016
2016-03-21T07:55:23.974Z,1016
2016-03-21T07:56:23.960Z,1020
2016-03-21T07:57:23.961Z,1032
2016-03-21T07:58:23.961Z,1044
2016-03-21T07:59:23.977Z,1068
2016-03-21T08:00:23.995Z,1076
2016-03-21T08:01:23.997Z,1080
2016-03-21T08:02:24.030Z,1084
2016-03-21T08:03:23.876Z,1076
2016-03-21T08:04:24.034Z,1072
2016-03-21T08:05:24.068Z,1072
2016-03-21T08:06:24.070Z,1072
2016-03-21T08:07:23.933Z,1068
2016-03-21T08:08:24.091Z,1072
2016-03-21T08:09:24.110Z,1084
2016-03-21T08:10:24.127Z,1088
2016-03-21T08:11:24.349Z,1092
2016-03-21T08:12:24.149Z,1088
2016-03-21T08:13:24.167Z,1076
2016-03-21T08:14:24.171Z,1056
2016-03-21T08:15:24.173Z,1056
2016-03-21T08:16:24.018Z,1056
2016-03-21T08:17:24.225Z,1044
2016-03-21T08:18:24.212Z,1020
2016-03-21T08:19:24.215Z,996
2016-03-21T08:20:24.233Z,1000
2016-03-21T08:21:24.251Z,1028
2016-03-21T08:22:24.114Z,1064
2016-03-21T08:23:24.287Z,1100
2016-03-21T08:24:24.306Z,1124
2016-03-21T08:25:24.309Z,1148
2016-03-21T08:26:26.687Z,1156
2016-03-21T08:27:24.314Z,1152
2016-03-21T08:28:24.333Z,1152
2016-03-21T08:29:24.350Z,1152
2016-03-21T08:30:24.385Z,1164
2016-03-21T08:31:24.371Z,1176
2016-03-21T08:32:24.391Z,1188
2016-03-21T08:33:24.408Z,1192
2016-03-21T08:34:24.411Z,1188
2016-03-21T08:35:24.430Z,1184
2016-03-21T08:36:24.448Z,1184
2016-03-21T08:37:24.482Z,1184
2016-03-21T08:38:24.468Z,1192
2016-03-21T08:39:24.503Z,1192
2016-03-21T08:40:24.505Z,1200
2016-03-21T08:41:24.524Z,1192
2016-03-21T08:42:24.526Z,1180
2016-03-21T08:43:24.545Z,1188
2016-03-21T08:44:24.782Z,1200
2016-03-21T08:45:24.581Z,1196
2016-03-21T08:46:24.569Z,1172
2016-03-21T08:47:24.587Z,1104
2016-03-21T08:48:24.605Z,1040
2016-03-21T08:49:24.607Z,1024
2016-03-21T08:50:25.235Z,1052
2016-03-21T08:51:24.645Z,1088
2016-03-21T08:52:24.647Z,1104
2016-03-21T08:53:24.650Z,1096
2016-03-21T08:54:24.668Z,1084
2016-03-21T08:55:24.686Z,1072
2016-03-21T08:56:24.706Z,1072
2016-03-21T08:57:24.708Z,1072
2016-03-21T08:58:24.726Z,1072
2016-03-21T08:59:24.744Z,1072
2016-03-21T09:00:24.778Z,1072
2016-03-21T09:01:24.765Z,1072
2016-03-21T09:02:24.783Z,1080
2016-03-21T09:03:24.802Z,1092
2016-03-21T09:04:24.804Z,1092
2016-03-21T09:05:24.807Z,1096
2016-03-21T09:06:24.841Z,1092
2016-03-21T09:07:24.844Z,1084
2016-03-21T09:08:24.878Z,1080
2016-03-21T09:09:24.865Z,1084
2016-03-21T09:10:24.883Z,1092
2016-03-21T09:11:24.886Z,1104
2016-03-21T09:12:24.904Z,1116
2016-03-21T09:13:24.937Z,1128
2016-03-21T09:14:24.917Z,1164
2016-03-21T09:15:24.934Z,1216
2016-03-21T09:16:24.953Z,1276
2016-03-21T09:17:24.971Z,1328
2016-03-21T09:18:25.178Z,1364
2016-03-21T09:19:24.992Z,1384
2016-03-21T09:20:24.994Z,1396
2016-03-21T09:21:25.060Z,1392
2016-03-21T09:22:25.031Z,1388
2016-03-21T09:23:25.033Z,1396
2016-03-21T09:24:25.366Z,1436
2016-03-21T09:25:25.071Z,1500
2016-03-21T09:26:25.089Z,1568
2016-03-21T09:27:25.091Z,1628
2016-03-21T09:28:25.126Z,1640
2016-03-21T09:29:25.129Z,1604
2016-03-21T09:30:25.131Z,1580
2016-03-21T09:31:25.149Z,1592
2016-03-21T09:32:25.168Z,1636
2016-03-21T09:33:25.185Z,1700
2016-03-21T09:34:25.221Z,1784
2016-03-21T09:35:39.316Z,1864
2016-03-21T09:36:25.241Z,1904
2016-03-21T09:37:25.212Z,1948
2016-03-21T09:38:25.231Z,1996
2016-03-21T09:39:25.249Z,2056
2016-03-21T09:40:25.267Z,2088
2016-03-21T09:41:25.317Z,2132
2016-03-21T09:42:25.288Z,2144
2016-03-21T09:43:25.337Z,2144
2016-03-21T09:44:25.325Z,2152
2016-03-21T09:45:25.312Z,2196
2016-03-21T09:46:25.378Z,2208
2016-03-21T09:47:25.395Z,2244
2016-03-21T09:48:25.383Z,2292
2016-03-21T09:49:25.386Z,2348
2016-03-21T09:50:25.403Z,2412
2016-03-21T09:51:25.406Z,2492
2016-03-21T09:52:25.425Z,2612
2016-03-21T09:53:25.459Z,2784
2016-03-21T09:54:25.446Z,2872
2016-03-21T09:55:25.449Z,2848
2016-03-21T09:56:25.497Z,2812
2016-03-21T09:57:25.485Z,2732
2016-03-21T09:58:25.502Z,2728
2016-03-21T09:59:25.522Z,2788
2016-03-21T10:00:25.524Z,2844
2016-03-21T10:01:25.542Z,2872
2016-03-21T10:02:25.592Z,2876
2016-03-21T10:03:25.579Z,2936
2016-03-21T10:04:25.613Z,3004
2016-03-21T10:05:25.615Z,3104
2016-03-21T10:06:25.729Z,3224
2016-03-21T10:07:25.622Z,3308
2016-03-21T10:08:25.655Z,3420
2016-03-21T10:09:25.659Z,3528
2016-03-21T10:10:25.677Z,3616
2016-03-21T10:11:25.696Z,3704
2016-03-21T10:12:25.698Z,3732
2016-03-21T10:13:25.716Z,3696
2016-03-21T10:14:25.718Z,3668
2016-03-21T10:15:25.768Z,3604
2016-03-21T10:16:25.756Z,3580
2016-03-21T10:17:25.774Z,3544
2016-03-21T10:18:25.776Z,3516
2016-03-21T10:19:25.842Z,3484
2016-03-21T10:20:25.813Z,3492
2016-03-21T10:21:25.895Z,3532
2016-03-21T10:22:25.834Z,3620
2016-03-21T10:23:25.868Z,3728
2016-03-21T10:24:25.887Z,3864
2016-03-21T10:25:25.906Z,4036
2016-03-21T10:26:25.908Z,4096
2016-03-21T10:27:25.957Z,4180
2016-03-21T10:28:25.928Z,4276
2016-03-21T10:29:25.962Z,4304
2016-03-21T10:30:25.964Z,4264
2016-03-21T10:31:25.999Z,4404
2016-03-21T10:32:26.002Z,4492
2016-03-21T10:33:26.035Z,4580
2016-03-21T10:34:26.039Z,5168
2016-03-21T10:35:26.041Z,4596
2016-03-21T10:36:26.122Z,4560
2016-03-21T10:37:26.078Z,4688
2016-03-21T10:38:26.096Z,4788
2016-03-21T10:39:26.114Z,4764
2016-03-21T10:40:26.164Z,4856
2016-03-21T10:41:26.199Z,5096
2016-03-21T10:42:26.154Z,5280
2016-03-21T10:43:26.187Z,5616
2016-03-21T10:44:26.174Z,5440
2016-03-21T10:45:26.193Z,5444
2016-03-21T10:46:26.243Z,5208
2016-03-21T10:47:26.261Z,5356
2016-03-21T10:48:26.263Z,5256
2016-03-21T10:49:26.266Z,5064
2016-03-21T10:50:26.284Z,5252
2016-03-21T10:51:26.413Z,5648
2016-03-21T10:52:26.321Z,5312
2016-03-21T10:53:26.339Z,5252
2016-03-21T10:54:26.389Z,4928
2016-03-21T10:55:26.392Z,4820
2016-03-21T10:56:26.378Z,5028
2016-03-21T10:57:26.429Z,5016
2016-03-21T10:58:26.431Z,5000
2016-03-21T10:59:26.450Z,5040
2016-03-21T11:00:26.499Z,4888
2016-03-21T11:01:26.470Z,5052
2016-03-21T11:02:26.505Z,5024
2016-03-21T11:03:26.522Z,5604
2016-03-21T11:04:26.541Z,5624
2016-03-21T11:05:26.544Z,5148
2016-03-21T11:06:26.577Z,5456
2016-03-21T11:07:26.603Z,5480
2016-03-21T11:08:26.622Z,4740
2016-03-21T11:09:26.625Z,6104
2016-03-21T11:10:26.659Z,4444
2016-03-21T11:11:26.522Z,4396
2016-03-21T11:12:26.680Z,4388
2016-03-21T11:13:26.730Z,4488
2016-03-21T11:14:26.716Z,4640
2016-03-21T11:15:26.735Z,4736
2016-03-21T11:16:26.769Z,4712
2016-03-21T11:17:26.771Z,4860
2016-03-21T11:18:26.804Z,4508
2016-03-21T11:19:26.840Z,4492
2016-03-21T11:20:26.826Z,4468
2016-03-21T11:21:26.766Z,4440
2016-03-21T11:22:26.879Z,4492
2016-03-21T11:23:26.881Z,4428
2016-03-21T11:24:26.915Z,4340
2016-03-21T11:25:26.981Z,4384
2016-03-21T11:26:26.984Z,4280
2016-03-21T11:27:26.954Z,4280
2016-03-21T11:28:26.972Z,4164
2016-03-21T11:29:27.023Z,4924
2016-03-21T11:30:27.025Z,4200
2016-03-21T11:31:26.947Z,4116
2016-03-21T11:32:27.420Z,4068
2016-03-21T11:33:27.063Z,4132
2016-03-21T11:34:27.311Z,4140
2016-03-21T11:35:27.151Z,4244
2016-03-21T11:36:27.140Z,4104
2016-03-21T11:37:27.157Z,4160
2016-03-21T11:38:27.176Z,4112
2016-03-21T11:39:27.178Z,4176
2016-03-21T11:40:27.275Z,4416
2016-03-21T11:41:27.230Z,4388
2016-03-21T11:42:27.265Z,4392
2016-03-21T11:43:27.142Z,4596
2016-03-21T11:44:27.301Z,4784
2016-03-21T11:45:27.334Z,4796
2016-03-21T11:46:27.322Z,4516
2016-03-21T11:47:27.387Z,4472
2016-03-21T11:48:27.358Z,4412
2016-03-21T11:49:27.408Z,4228
2016-03-21T11:50:27.395Z,4900
2016-03-21T11:51:27.460Z,4048
2016-03-21T11:52:27.447Z,3876
2016-03-21T11:53:27.466Z,4104
2016-03-21T11:54:27.546Z,4184
2016-03-21T11:55:27.518Z,4080
2016-03-21T11:56:27.568Z,4804
2016-03-21T11:57:27.555Z,3988
2016-03-21T11:58:27.573Z,3804
2016-03-21T11:59:27.576Z,3748
2016-03-21T12:00:27.610Z,3844
2016-03-21T12:01:28.831Z,4396
2016-03-21T12:02:27.616Z,3952
2016-03-21T12:03:27.696Z,3596
2016-03-21T12:04:27.682Z,3528
2016-03-21T12:05:27.701Z,3884
2016-03-21T12:06:27.595Z,3396
2016-03-21T12:07:27.757Z,3372
2016-03-21T12:08:27.604Z,3848
2016-03-21T12:09:27.810Z,3340
2016-03-21T12:10:27.813Z,3240
2016-03-21T12:11:27.846Z,3276
2016-03-21T12:12:27.849Z,3232
2016-03-21T12:13:27.852Z,3356
2016-03-21T12:14:27.869Z,4052
2016-03-21T12:15:27.904Z,3872
2016-03-21T12:16:27.922Z,3552
2016-03-21T12:17:27.957Z,3352
2016-03-21T12:18:27.960Z,3372
2016-03-21T12:19:27.993Z,2936
2016-03-21T12:20:28.135Z,4064
2016-03-21T12:21:28.030Z,2868
2016-03-21T12:22:28.016Z,2936
2016-03-21T12:23:28.034Z,2812
2016-03-21T12:24:28.084Z,2752
2016-03-21T12:25:28.103Z,2692
2016-03-21T12:26:28.105Z,2596
2016-03-21T12:27:28.124Z,2504
2016-03-21T12:28:28.142Z,2440
2016-03-21T12:29:28.145Z,2420
2016-03-21T12:30:28.163Z,2428
2016-03-21T12:31:28.197Z,2448
2016-03-21T12:32:28.214Z,2468
2016-03-21T12:33:28.249Z,2420
2016-03-21T12:34:28.236Z,2396
2016-03-21T12:35:28.255Z,2368
2016-03-21T12:36:28.320Z,2308
2016-03-21T12:37:28.307Z,2292
2016-03-21T12:38:28.341Z,2260
2016-03-21T12:39:28.344Z,2188
2016-03-21T12:40:28.393Z,2080
2016-03-21T12:41:28.396Z,2028
2016-03-21T12:42:28.399Z,2044
2016-03-21T12:43:28.432Z,2048
2016-03-21T12:44:28.435Z,2068
2016-03-21T12:45:28.453Z,2092
2016-03-21T12:46:28.487Z,2064
2016-03-21T12:47:28.505Z,2100
2016-03-21T12:48:28.540Z,2152
2016-03-21T12:49:28.542Z,2240
2016-03-21T12:50:28.545Z,2836
2016-03-21T12:51:28.578Z,2572
2016-03-21T12:52:28.581Z,2456
2016-03-21T12:53:28.615Z,2532
2016-03-21T12:54:28.602Z,3220
2016-03-21T12:55:28.668Z,4476
2016-03-21T12:56:28.514Z,3224
2016-03-21T12:57:28.657Z,4364
2016-03-21T12:58:28.692Z,2652
2016-03-21T12:59:28.709Z,2520
2016-03-21T13:00:28.743Z,2392
2016-03-21T13:01:28.746Z,2404
2016-03-21T13:02:28.764Z,2392
2016-03-21T13:03:28.784Z,2488
2016-03-21T13:04:28.801Z,2460
2016-03-21T13:05:28.835Z,2432
2016-03-21T13:06:28.839Z,2348
2016-03-21T13:07:28.866Z,2352
2016-03-21T13:08:29.071Z,2312
2016-03-21T13:09:28.888Z,2348
2016-03-21T13:10:28.921Z,2420
2016-03-21T13:11:28.939Z,2404
2016-03-21T13:12:28.941Z,2460
2016-03-21T13:13:28.976Z,2564
2016-03-21T13:14:28.979Z,2512
2016-03-21T13:15:28.996Z,2624
2016-03-21T13:16:29.016Z,2652
2016-03-21T13:17:29.065Z,2644
2016-03-21T13:18:29.099Z,2740
2016-03-21T13:19:29.085Z,2536
2016-03-21T13:20:29.088Z,2452
2016-03-21T13:21:29.106Z,2512
2016-03-21T13:22:29.156Z,3252
2016-03-21T13:23:29.128Z,2448
2016-03-21T13:24:29.178Z,2420
2016-03-21T13:25:29.164Z,2396
2016-03-21T13:26:29.214Z,2404
2016-03-21T13:27:29.232Z,2476
2016-03-21T13:28:29.234Z,2436
2016-03-21T13:29:29.237Z,2424
2016-03-21T13:30:29.303Z,2540
2016-03-21T13:31:29.289Z,2416
2016-03-21T13:32:29.292Z,2408
2016-03-21T13:33:29.342Z,2428
2016-03-21T13:34:29.344Z,3096
2016-03-21T13:35:29.347Z,2360
2016-03-21T13:36:29.413Z,2400
2016-03-21T13:37:29.400Z,3388
2016-03-21T13:38:29.418Z,2676
2016-03-21T13:39:29.452Z,2632
2016-03-21T13:40:29.455Z,3772
2016-03-21T13:41:29.473Z,3552
2016-03-21T13:42:29.491Z,3668
2016-03-21T13:43:29.354Z,3816
2016-03-21T13:44:29.512Z,3740
2016-03-21T13:45:29.562Z,3692
2016-03-21T13:46:29.596Z,3224
2016-03-21T13:47:29.583Z,2212
2016-03-21T13:48:29.617Z,3416
2016-03-21T13:49:29.635Z,2364
2016-03-21T13:50:29.654Z,3352
2016-03-21T13:51:29.656Z,2748
2016-03-21T13:52:30.080Z,2948
2016-03-21T13:53:29.692Z,3440
2016-03-21T13:54:29.758Z,3424
2016-03-21T13:55:29.729Z,2720